Time;durP1;ratioP1;P1;durP2;ratioP2;P2;SDS_P1;SDS_P2;PMS_P1;PMS_P2;Temp;Humidity;BMP_temperature;BMP_pressure;BME280_temperature;BME280_humidity;BME280_pressure;Samples;Min_cycle;Max_cycle;Signal;HPM_P1;HPM_P2
2023/07/28 00:00:52;;;;;;;3.35;1.30;;;;;;;;;;5057869;28;20032;-63
2023/07/28 00:03:19;;;;;;;8.88;1.50;;;;;;;;;;5058738;28;20040;-62
2023/07/28 00:05:45;;;;;;;2.90;1.10;;;;;;;;;;5060441;28;20579;-62
2023/07/28 00:08:12;;;;;;;4.97;1.65;;;;;;;;;;5060853;28;20067;-63
2023/07/28 00:10:42;;;;;;;4.30;1.50;;;;;;;;;;5061943;28;20032;-62
2023/07/28 00:13:09;;;;;;;5.70;1.65;;;;;;;;;;5059389;28;20493;-62
2023/07/28 00:15:36;;;;;;;4.35;2.00;;;;;;;;;;5058226;28;20634;-61
2023/07/28 00:18:02;;;;;;;4.30;1.75;;;;;;;;;;5061503;28;20059;-62
2023/07/28 00:20:29;;;;;;;4.32;2.03;;;;;;;;;;5037407;28;20051;-61
2023/07/28 00:22:56;;;;;;;4.00;1.90;;;;;;;;;;5040118;28;20036;-63
2023/07/28 00:25:23;;;;;;;6.45;2.50;;;;;;;;;;5059036;28;20041;-68
2023/07/28 00:27:49;;;;;;;4.70;2.28;;;;;;;;;;5061719;28;20052;-62
2023/07/28 00:30:16;;;;;;;4.55;2.45;;;;;;;;;;5061622;28;20041;-64
2023/07/28 00:32:42;;;;;;;4.85;2.22;;;;;;;;;;5060024;28;20111;-64
2023/07/28 00:35:09;;;;;;;5.25;2.58;;;;;;;;;;5039723;28;20389;-62
2023/07/28 00:37:36;;;;;;;4.45;2.38;;;;;;;;;;5056263;28;20074;-63
2023/07/28 00:40:03;;;;;;;8.98;2.70;;;;;;;;;;5057050;28;20047;-64
2023/07/28 00:42:29;;;;;;;5.53;2.80;;;;;;;;;;5056326;28;20830;-62
2023/07/28 00:44:56;;;;;;;5.82;2.88;;;;;;;;;;5043461;28;20091;-62
2023/07/28 00:47:23;;;;;;;8.73;3.38;;;;;;;;;;5056185;28;20047;-59
2023/07/28 00:49:49;;;;;;;6.20;3.38;;;;;;;;;;5058088;28;20043;-61
2023/07/28 00:52:16;;;;;;;9.23;3.63;;;;;;;;;;5047403;28;20049;-62
2023/07/28 00:54:42;;;;;;;6.90;3.85;;;;;;;;;;5053318;28;20720;-63
2023/07/28 00:57:09;;;;;;;6.18;3.33;;;;;;;;;;5058470;28;20575;-60
2023/07/28 00:59:36;;;;;;;5.47;3.40;;;;;;;;;;5056157;28;20052;-61
2023/07/28 01:02:02;;;;;;;6.32;3.30;;;;;;;;;;5059226;28;20059;-62
2023/07/28 01:04:29;;;;;;;5.45;3.08;;;;;;;;;;5060652;28;20036;-60
2023/07/28 01:07:06;;;;;;;5.95;3.53;;;;;;;;;;5045990;28;20101;-61
2023/07/28 01:09:37;;;;;;;9.65;4.82;;;;;;;;;;5040353;28;20036;-61
2023/07/28 01:12:09;;;;;;;9.73;4.95;;;;;;;;;;5058932;28;20041;-63
2023/07/28 01:14:35;;;;;;;11.38;4.57;;;;;;;;;;5056947;28;20085;-62
2023/07/28 01:17:02;;;;;;;6.05;4.05;;;;;;;;;;5035779;28;20040;-63
2023/07/28 01:19:29;;;;;;;6.75;4.45;;;;;;;;;;5038834;28;20797;-61
2023/07/28 01:22:18;;;;;;;7.07;4.53;;;;;;;;;;5040522;28;20106;-62
2023/07/28 01:25:08;;;;;;;7.80;5.13;;;;;;;;;;5050312;28;20492;-61
2023/07/28 01:27:37;;;;;;;7.35;4.05;;;;;;;;;;5009337;28;20037;-60
2023/07/28 01:30:04;;;;;;;6.20;3.50;;;;;;;;;;5057209;28;20094;-61
2023/07/28 01:32:30;;;;;;;7.65;3.88;;;;;;;;;;5058750;28;20064;-61
2023/07/28 01:34:57;;;;;;;7.05;3.70;;;;;;;;;;5057798;28;20097;-60
2023/07/28 01:37:23;;;;;;;5.38;3.25;;;;;;;;;;5058217;28;20045;-61
2023/07/28 01:39:50;;;;;;;6.22;3.38;;;;;;;;;;5036302;28;20041;-60
2023/07/28 01:42:17;;;;;;;5.68;3.30;;;;;;;;;;5059419;28;20170;-60
2023/07/28 01:44:43;;;;;;;4.13;2.53;;;;;;;;;;5056838;28;20046;-60
2023/07/28 01:47:10;;;;;;;5.55;2.67;;;;;;;;;;5058153;28;20048;-61
2023/07/28 01:49:36;;;;;;;5.55;3.13;;;;;;;;;;5036684;28;20048;-61
2023/07/28 01:52:03;;;;;;;4.85;2.83;;;;;;;;;;5059102;28;20312;-62
2023/07/28 01:54:30;;;;;;;5.20;3.20;;;;;;;;;;5057384;28;20478;-60
2023/07/28 01:56:56;;;;;;;5.63;2.97;;;;;;;;;;5055509;28;20058;-62
2023/07/28 01:59:23;;;;;;;5.82;3.35;;;;;;;;;;5042708;28;20040;-63
2023/07/28 02:01:50;;;;;;;6.55;3.10;;;;;;;;;;5058393;28;20040;-61
2023/07/28 02:04:16;;;;;;;8.75;3.47;;;;;;;;;;5060721;28;20182;-62
2023/07/28 02:06:43;;;;;;;7.32;3.80;;;;;;;;;;5058344;28;20053;-63
2023/07/28 02:09:09;;;;;;;4.93;2.85;;;;;;;;;;5042377;28;20036;-61
2023/07/28 02:11:36;;;;;;;4.60;2.90;;;;;;;;;;5060144;28;20127;-62
2023/07/28 02:14:03;;;;;;;6.53;3.10;;;;;;;;;;5060238;28;20048;-63
2023/07/28 02:16:30;;;;;;;4.88;2.83;;;;;;;;;;5056481;28;20040;-61
2023/07/28 02:18:57;;;;;;;5.45;3.08;;;;;;;;;;5045445;28;20124;-62
2023/07/28 02:21:23;;;;;;;5.68;3.22;;;;;;;;;;5031521;28;20036;-64
2023/07/28 02:23:50;;;;;;;5.22;2.42;;;;;;;;;;5044825;28;20037;-62
2023/07/28 02:26:17;;;;;;;3.10;1.45;;;;;;;;;;5045147;28;20047;-61
2023/07/28 02:28:43;;;;;;;4.30;1.40;;;;;;;;;;5048781;28;20098;-61
2023/07/28 02:31:10;;;;;;;3.00;1.20;;;;;;;;;;5046976;28;20041;-62
2023/07/28 02:33:36;;;;;;;4.47;1.50;;;;;;;;;;5045151;28;20199;-63
2023/07/28 02:36:05;;;;;;;3.50;1.33;;;;;;;;;;5045565;28;20048;-64
2023/07/28 02:38:31;;;;;;;4.15;1.70;;;;;;;;;;5045327;28;20044;-62
2023/07/28 02:40:58;;;;;;;3.50;1.80;;;;;;;;;;5044384;28;20035;-61
2023/07/28 02:43:24;;;;;;;3.63;1.70;;;;;;;;;;5045632;28;22622;-63
2023/07/28 02:45:55;;;;;;;4.20;2.00;;;;;;;;;;5047319;28;20154;-62
2023/07/28 02:48:22;;;;;;;3.63;1.50;;;;;;;;;;5045303;28;20036;-63
2023/07/28 02:50:50;;;;;;;5.07;1.73;;;;;;;;;;5046896;28;20117;-63
2023/07/28 02:53:17;;;;;;;3.40;1.63;;;;;;;;;;5046962;28;20036;-63
2023/07/28 02:55:44;;;;;;;4.72;1.90;;;;;;;;;;5046666;28;20083;-63
2023/07/28 02:58:13;;;;;;;3.92;1.90;;;;;;;;;;5046855;28;20044;-63
2023/07/28 03:00:40;;;;;;;3.63;1.60;;;;;;;;;;5045175;28;20032;-62
2023/07/28 03:03:10;;;;;;;3.08;1.20;;;;;;;;;;5024949;28;20052;-62
2023/07/28 03:05:37;;;;;;;3.75;1.40;;;;;;;;;;5042928;28;20167;-66
2023/07/28 03:08:04;;;;;;;3.45;1.48;;;;;;;;;;5046209;28;20056;-62
2023/07/28 03:10:30;;;;;;;3.75;1.58;;;;;;;;;;5043848;28;20045;-63
2023/07/28 03:12:57;;;;;;;3.35;1.60;;;;;;;;;;5044909;28;20045;-62
2023/07/28 03:15:24;;;;;;;3.65;1.60;;;;;;;;;;5043236;28;20064;-63
2023/07/28 03:17:51;;;;;;;3.80;1.70;;;;;;;;;;5043558;28;20096;-62
2023/07/28 03:20:17;;;;;;;3.95;1.80;;;;;;;;;;5045664;28;20040;-66
2023/07/28 03:22:44;;;;;;;5.25;1.73;;;;;;;;;;5046146;28;20042;-61
2023/07/28 03:25:12;;;;;;;3.97;1.75;;;;;;;;;;5027934;28;20037;-60
2023/07/28 03:27:38;;;;;;;4.13;2.10;;;;;;;;;;5045740;28;20047;-63
2023/07/28 03:30:14;;;;;;;3.85;1.95;;;;;;;;;;5043948;28;20040;-62
2023/07/28 03:32:41;;;;;;;5.43;2.03;;;;;;;;;;5032784;28;20040;-60
2023/07/28 03:35:08;;;;;;;5.15;2.15;;;;;;;;;;5046978;28;20045;-63
2023/07/28 03:37:35;;;;;;;5.22;2.13;;;;;;;;;;5044981;28;20064;-61
2023/07/28 03:40:02;;;;;;;3.83;1.65;;;;;;;;;;5048542;28;20040;-61
2023/07/28 03:42:28;;;;;;;6.60;2.05;;;;;;;;;;5037870;28;20036;-60
2023/07/28 03:44:55;;;;;;;4.38;2.15;;;;;;;;;;5060098;28;20056;-62
2023/07/28 03:47:21;;;;;;;5.38;2.25;;;;;;;;;;5058870;28;21650;-63
2023/07/28 03:49:48;;;;;;;7.72;2.60;;;;;;;;;;5059501;28;20037;-62
2023/07/28 03:52:14;;;;;;;4.65;2.65;;;;;;;;;;5059975;28;20548;-60
2023/07/28 03:54:41;;;;;;;4.80;2.53;;;;;;;;;;5058360;28;20049;-61
2023/07/28 03:57:09;;;;;;;4.43;2.75;;;;;;;;;;5037505;28;20064;-61
2023/07/28 03:59:36;;;;;;;6.05;2.83;;;;;;;;;;5059225;28;20599;-64
2023/07/28 04:02:03;;;;;;;4.18;2.47;;;;;;;;;;5057429;28;20044;-62
2023/07/28 04:04:29;;;;;;;4.38;2.65;;;;;;;;;;5059002;28;20064;-62
2023/07/28 04:06:56;;;;;;;4.88;3.10;;;;;;;;;;5058780;28;20089;-64
2023/07/28 04:09:22;;;;;;;5.55;3.20;;;;;;;;;;5059541;28;20039;-60
2023/07/28 04:11:49;;;;;;;4.10;2.20;;;;;;;;;;5060053;28;20074;-61
2023/07/28 04:14:16;;;;;;;5.97;2.90;;;;;;;;;;5062004;28;20041;-62
2023/07/28 04:16:42;;;;;;;6.32;3.15;;;;;;;;;;5060116;28;20119;-60
2023/07/28 04:19:09;;;;;;;5.30;2.55;;;;;;;;;;5062972;28;20032;-62
2023/07/28 04:21:39;;;;;;;5.15;3.00;;;;;;;;;;5046740;28;20067;-63
2023/07/28 04:24:07;;;;;;;5.47;2.80;;;;;;;;;;5059999;28;20438;-64
2023/07/28 04:26:34;;;;;;;5.57;3.20;;;;;;;;;;5059073;28;20688;-62
2023/07/28 04:29:01;;;;;;;5.20;3.17;;;;;;;;;;5061395;28;20041;-64
2023/07/28 04:31:27;;;;;;;4.93;2.90;;;;;;;;;;5060050;28;20040;-62
2023/07/28 04:33:54;;;;;;;4.55;2.58;;;;;;;;;;5060608;28;20592;-63
2023/07/28 04:36:21;;;;;;;4.70;2.92;;;;;;;;;;5057484;28;20035;-71
2023/07/28 04:38:49;;;;;;;6.43;2.60;;;;;;;;;;5062103;28;20033;-63
2023/07/28 04:41:15;;;;;;;5.68;2.92;;;;;;;;;;5043192;28;20063;-62
2023/07/28 04:43:42;;;;;;;4.72;2.70;;;;;;;;;;5060075;28;20161;-65
2023/07/28 04:46:08;;;;;;;5.25;3.08;;;;;;;;;;5060277;28;20037;-63
2023/07/28 04:48:55;;;;;;;6.80;3.63;;;;;;;;;;5017497;28;20033;-63
2023/07/28 04:51:22;;;;;;;4.63;2.78;;;;;;;;;;5016548;28;20053;-63
2023/07/28 04:53:48;;;;;;;5.30;3.00;;;;;;;;;;5019725;28;20034;-61
2023/07/28 04:56:15;;;;;;;5.70;3.20;;;;;;;;;;5018043;28;20041;-62
2023/07/28 04:58:43;;;;;;;5.07;3.13;;;;;;;;;;5016324;28;20046;-63
2023/07/28 05:01:09;;;;;;;5.57;3.38;;;;;;;;;;5016206;28;20048;-62
2023/07/28 05:03:36;;;;;;;5.25;3.00;;;;;;;;;;5014648;28;20049;-61
2023/07/28 05:06:04;;;;;;;5.93;3.47;;;;;;;;;;5015293;28;20061;-63
2023/07/28 05:08:31;;;;;;;5.28;3.58;;;;;;;;;;5014058;28;20061;-62
2023/07/28 05:10:58;;;;;;;6.95;3.72;;;;;;;;;;5014163;28;20115;-62
2023/07/28 05:13:24;;;;;;;5.53;3.20;;;;;;;;;;5002416;28;20041;-62
2023/07/28 05:15:51;;;;;;;6.15;3.13;;;;;;;;;;5015046;28;20054;-63
2023/07/28 05:18:17;;;;;;;5.40;3.30;;;;;;;;;;5015458;28;20085;-62
2023/07/28 05:20:44;;;;;;;6.28;2.78;;;;;;;;;;5003604;28;20046;-63
2023/07/28 05:23:10;;;;;;;5.82;3.50;;;;;;;;;;5014186;28;20613;-64
2023/07/28 05:25:37;;;;;;;5.40;3.53;;;;;;;;;;5019817;28;20048;-63
2023/07/28 05:28:04;;;;;;;6.47;3.80;;;;;;;;;;5063018;28;21108;-62
2023/07/28 05:30:30;;;;;;;7.75;3.60;;;;;;;;;;5061180;28;20047;-63
2023/07/28 05:32:57;;;;;;;5.65;3.40;;;;;;;;;;5063755;28;20048;-63
2023/07/28 05:35:24;;;;;;;5.00;3.30;;;;;;;;;;5062247;28;20497;-68
2023/07/28 05:37:50;;;;;;;6.15;3.78;;;;;;;;;;5063059;28;20109;-64
2023/07/28 05:40:17;;;;;;;5.57;3.08;;;;;;;;;;5063588;28;20068;-62
2023/07/28 05:42:43;;;;;;;6.75;3.63;;;;;;;;;;5061831;28;20051;-64
2023/07/28 05:45:10;;;;;;;5.72;2.83;;;;;;;;;;5060675;28;20198;-66
2023/07/28 05:47:37;;;;;;;5.53;3.15;;;;;;;;;;5042125;28;20036;-63
2023/07/28 05:50:03;;;;;;;6.05;2.80;;;;;;;;;;5047214;28;20086;-64
2023/07/28 05:52:30;;;;;;;5.55;2.50;;;;;;;;;;5061364;28;20493;-66
2023/07/28 05:54:57;;;;;;;4.53;2.55;;;;;;;;;;5029702;28;20107;-62
2023/07/28 05:57:24;;;;;;;4.18;2.45;;;;;;;;;;5057775;28;20052;-61
2023/07/28 05:59:51;;;;;;;4.95;2.70;;;;;;;;;;5040080;28;20040;-60
2023/07/28 06:02:18;;;;;;;4.88;2.60;;;;;;;;;;5061443;28;20089;-60
2023/07/28 06:04:44;;;;;;;4.38;2.17;;;;;;;;;;5036865;28;20111;-61
2023/07/28 06:07:12;;;;;;;3.85;2.00;;;;;;;;;;5034393;28;20044;-62
2023/07/28 06:09:38;;;;;;;6.93;2.50;;;;;;;;;;5058557;28;22445;-60
2023/07/28 06:12:05;;;;;;;6.18;2.17;;;;;;;;;;5060757;28;20629;-62
2023/07/28 06:14:32;;;;;;;4.85;2.58;;;;;;;;;;5058955;28;20048;-62
2023/07/28 06:16:58;;;;;;;4.15;2.30;;;;;;;;;;5042901;28;20036;-61
2023/07/28 06:19:25;;;;;;;4.57;2.38;;;;;;;;;;5040967;28;20028;-63
2023/07/28 06:21:52;;;;;;;4.00;2.10;;;;;;;;;;5060252;28;20909;-62
2023/07/28 06:24:19;;;;;;;5.85;2.67;;;;;;;;;;5061407;28;20084;-62
2023/07/28 06:26:45;;;;;;;4.72;2.30;;;;;;;;;;5059393;28;20137;-63
2023/07/28 06:29:12;;;;;;;4.70;2.50;;;;;;;;;;5060153;28;20041;-62
2023/07/28 06:31:39;;;;;;;5.55;2.42;;;;;;;;;;5032931;28;20045;-62
2023/07/28 06:34:06;;;;;;;4.22;2.10;;;;;;;;;;5061043;28;20485;-64
2023/07/28 06:36:33;;;;;;;5.35;2.22;;;;;;;;;;5060190;28;20041;-63
2023/07/28 06:38:59;;;;;;;4.90;2.53;;;;;;;;;;5032447;28;20041;-64
2023/07/28 06:41:26;;;;;;;5.57;2.38;;;;;;;;;;5060411;28;20488;-63
2023/07/28 06:43:52;;;;;;;5.57;2.50;;;;;;;;;;5060935;28;20074;-64
2023/07/28 06:46:19;;;;;;;5.78;2.80;;;;;;;;;;5031738;28;20386;-63
2023/07/28 06:48:45;;;;;;;4.97;2.92;;;;;;;;;;5058770;28;20082;-63
2023/07/28 06:51:12;;;;;;;6.05;2.47;;;;;;;;;;5035791;28;20258;-65
2023/07/28 06:53:39;;;;;;;4.70;2.67;;;;;;;;;;5059107;28;20043;-62
2023/07/28 06:56:05;;;;;;;5.90;3.17;;;;;;;;;;5042773;28;20048;-63
2023/07/28 06:58:32;;;;;;;5.43;3.25;;;;;;;;;;5056786;28;20073;-64
2023/07/28 07:00:59;;;;;;;6.53;3.03;;;;;;;;;;5041659;28;20610;-63
2023/07/28 07:03:25;;;;;;;5.78;2.92;;;;;;;;;;5059534;28;20081;-63
2023/07/28 07:05:52;;;;;;;6.25;3.13;;;;;;;;;;5045571;28;20032;-64
2023/07/28 07:08:18;;;;;;;7.72;3.33;;;;;;;;;;5059663;28;20098;-64
2023/07/28 07:10:50;;;;;;;6.00;3.08;;;;;;;;;;5060489;28;20068;-63
2023/07/28 07:13:16;;;;;;;5.72;3.30;;;;;;;;;;5059366;28;20047;-64
2023/07/28 07:15:43;;;;;;;5.68;3.35;;;;;;;;;;5059390;28;20432;-65
2023/07/28 07:18:10;;;;;;;6.75;3.60;;;;;;;;;;5061922;28;20054;-64
2023/07/28 07:20:37;;;;;;;6.80;3.88;;;;;;;;;;5060552;28;20036;-63
2023/07/28 07:23:03;;;;;;;7.78;4.40;;;;;;;;;;5062710;28;20048;-62
2023/07/28 07:25:30;;;;;;;6.60;4.07;;;;;;;;;;5058118;28;20842;-63
2023/07/28 07:27:57;;;;;;;7.65;4.10;;;;;;;;;;5062157;28;20107;-64
2023/07/28 07:30:23;;;;;;;7.13;3.95;;;;;;;;;;5033012;28;20267;-67
2023/07/28 07:32:51;;;;;;;7.25;3.85;;;;;;;;;;5060381;28;20072;-65
2023/07/28 07:35:18;;;;;;;7.05;3.65;;;;;;;;;;5059117;28;20043;-66
2023/07/28 07:37:45;;;;;;;6.55;3.72;;;;;;;;;;5061292;28;20043;-65
2023/07/28 07:40:14;;;;;;;7.07;4.07;;;;;;;;;;5059658;28;20539;-64
2023/07/28 07:42:48;;;;;;;6.00;3.25;;;;;;;;;;5059395;28;20436;-66
2023/07/28 07:45:15;;;;;;;5.82;3.53;;;;;;;;;;5059152;28;20123;-65
2023/07/28 07:47:42;;;;;;;6.00;3.42;;;;;;;;;;5058196;28;20055;-64
2023/07/28 07:50:10;;;;;;;6.22;3.40;;;;;;;;;;5061702;28;20044;-64
2023/07/28 07:52:37;;;;;;;9.23;4.00;;;;;;;;;;5058395;28;20106;-62
2023/07/28 07:55:04;;;;;;;7.78;3.80;;;;;;;;;;5060712;28;20048;-69
2023/07/28 07:57:31;;;;;;;7.18;4.38;;;;;;;;;;5058710;28;20040;-65
2023/07/28 08:00:00;;;;;;;6.43;3.60;;;;;;;;;;5060217;28;20040;-65
2023/07/28 08:02:27;;;;;;;6.05;3.60;;;;;;;;;;5060350;28;20081;-64
2023/07/28 08:04:54;;;;;;;5.85;3.25;;;;;;;;;;5060977;28;20048;-64
2023/07/28 08:07:21;;;;;;;6.45;3.60;;;;;;;;;;5059687;28;20036;-64
2023/07/28 08:09:47;;;;;;;7.00;3.40;;;;;;;;;;5057795;28;20045;-65
2023/07/28 08:12:15;;;;;;;6.88;3.95;;;;;;;;;;5058700;28;20041;-64
2023/07/28 08:14:42;;;;;;;7.63;3.85;;;;;;;;;;5060222;28;20622;-65
2023/07/28 08:17:09;;;;;;;8.13;4.40;;;;;;;;;;5058987;28;20033;-64
2023/07/28 08:19:36;;;;;;;7.22;4.53;;;;;;;;;;5062732;28;20118;-64
2023/07/28 08:22:06;;;;;;;8.63;4.85;;;;;;;;;;5035953;28;20058;-64
2023/07/28 08:24:33;;;;;;;8.38;4.82;;;;;;;;;;5068141;28;20035;-70
2023/07/28 08:27:00;;;;;;;9.07;5.00;;;;;;;;;;5043002;28;20041;-64
2023/07/28 08:29:26;;;;;;;8.57;5.25;;;;;;;;;;5066856;28;20050;-64
2023/07/28 08:31:53;;;;;;;9.45;6.03;;;;;;;;;;5071280;28;20044;-64
2023/07/28 08:34:19;;;;;;;8.57;5.20;;;;;;;;;;5046848;28;20124;-65
2023/07/28 08:36:46;;;;;;;11.02;6.30;;;;;;;;;;5072179;28;20069;-64
2023/07/28 08:39:14;;;;;;;10.43;5.57;;;;;;;;;;5072755;28;20040;-64
2023/07/28 08:41:41;;;;;;;9.93;6.18;;;;;;;;;;5073064;28;20108;-64
2023/07/28 08:44:08;;;;;;;10.25;6.28;;;;;;;;;;5075005;28;20032;-65
2023/07/28 08:46:35;;;;;;;10.00;6.40;;;;;;;;;;5068460;28;20126;-64
2023/07/28 08:49:02;;;;;;;9.45;5.72;;;;;;;;;;5070515;28;20037;-65
2023/07/28 08:51:29;;;;;;;7.80;4.88;;;;;;;;;;5069559;28;20044;-65
2023/07/28 08:53:55;;;;;;;8.50;5.45;;;;;;;;;;5069285;28;20036;-64
2023/07/28 08:56:23;;;;;;;8.40;5.70;;;;;;;;;;5041839;28;20029;-65
2023/07/28 08:58:50;;;;;;;9.55;6.05;;;;;;;;;;5071499;28;20424;-65
2023/07/28 09:01:16;;;;;;;9.20;5.70;;;;;;;;;;5069558;28;20119;-65
2023/07/28 09:03:43;;;;;;;8.13;5.50;;;;;;;;;;5060071;28;20453;-64
2023/07/28 09:06:10;;;;;;;8.48;5.63;;;;;;;;;;5060492;28;20508;-69
2023/07/28 09:08:37;;;;;;;9.35;5.80;;;;;;;;;;5064117;28;20044;-66
2023/07/28 09:11:06;;;;;;;9.02;5.70;;;;;;;;;;5062898;28;20068;-66
2023/07/28 09:13:37;;;;;;;8.48;5.63;;;;;;;;;;5060817;28;20037;-66
2023/07/28 09:16:06;;;;;;;11.55;5.93;;;;;;;;;;5063380;28;20405;-65
2023/07/28 09:18:33;;;;;;;7.45;4.30;;;;;;;;;;5042372;28;20037;-65
2023/07/28 09:20:59;;;;;;;6.22;3.63;;;;;;;;;;5062458;28;20041;-65
2023/07/28 09:23:30;;;;;;;7.35;3.60;;;;;;;;;;5060411;28;20044;-66
2023/07/28 09:26:04;;;;;;;5.32;3.13;;;;;;;;;;5058841;28;20067;-64
2023/07/28 09:28:41;;;;;;;6.65;3.08;;;;;;;;;;5064036;28;20074;-65
2023/07/28 09:31:08;;;;;;;5.38;2.90;;;;;;;;;;5063514;28;20040;-68
2023/07/28 09:33:35;;;;;;;5.57;3.25;;;;;;;;;;5044603;28;20043;-66
2023/07/28 09:36:09;;;;;;;5.63;3.22;;;;;;;;;;5064051;28;20746;-65
2023/07/28 09:38:43;;;;;;;5.07;2.83;;;;;;;;;;5067168;28;20112;-65
2023/07/28 09:41:11;;;;;;;5.45;3.28;;;;;;;;;;5038429;28;20028;-63
2023/07/28 09:43:42;;;;;;;5.53;3.10;;;;;;;;;;5065705;28;20044;-67
2023/07/28 09:46:10;;;;;;;6.63;3.25;;;;;;;;;;5039780;28;20032;-65
2023/07/28 09:48:40;;;;;;;5.60;3.10;;;;;;;;;;5034403;28;20036;-65
2023/07/28 09:51:13;;;;;;;5.15;2.92;;;;;;;;;;5060995;28;20485;-65
2023/07/28 09:54:03;;;;;;;5.45;3.17;;;;;;;;;;5016567;28;20100;-65
2023/07/28 09:56:30;;;;;;;6.80;3.38;;;;;;;;;;5019760;28;20034;-65
2023/07/28 09:58:57;;;;;;;5.28;3.30;;;;;;;;;;5024220;28;20044;-65
2023/07/28 10:01:24;;;;;;;6.18;3.40;;;;;;;;;;5014768;28;20049;-66
2023/07/28 10:03:51;;;;;;;5.95;3.30;;;;;;;;;;5010775;28;20056;-65
2023/07/28 10:06:23;;;;;;;7.80;3.50;;;;;;;;;;5011422;28;20086;-66
2023/07/28 10:08:50;;;;;;;5.87;3.53;;;;;;;;;;5011525;28;20140;-65
2023/07/28 10:11:18;;;;;;;5.93;2.90;;;;;;;;;;5010873;28;20052;-65
2023/07/28 10:13:46;;;;;;;4.90;2.95;;;;;;;;;;5002118;28;20057;-66
2023/07/28 10:16:16;;;;;;;5.82;2.90;;;;;;;;;;5011476;28;20049;-65
2023/07/28 10:18:52;;;;;;;7.07;3.00;;;;;;;;;;5014606;28;20160;-66
2023/07/28 10:21:19;;;;;;;5.13;2.80;;;;;;;;;;5013724;28;20597;-66
2023/07/28 10:23:47;;;;;;;5.00;2.72;;;;;;;;;;5011855;28;20042;-66
2023/07/28 10:26:14;;;;;;;5.60;2.90;;;;;;;;;;5011154;28;20033;-66
2023/07/28 10:28:43;;;;;;;5.15;2.63;;;;;;;;;;5025616;28;20071;-67
2023/07/28 10:31:11;;;;;;;5.95;3.05;;;;;;;;;;5052367;28;20059;-66
2023/07/28 10:33:38;;;;;;;5.22;2.78;;;;;;;;;;5066065;28;20040;-66
2023/07/28 10:36:23;;;;;;;6.25;3.25;;;;;;;;;;5084897;28;20048;-67
2023/07/28 10:39:07;;;;;;;7.32;3.30;;;;;;;;;;5085988;28;20036;-66
2023/07/28 10:41:36;;;;;;;5.30;3.07;;;;;;;;;;5057710;28;20076;-65
2023/07/28 10:44:04;;;;;;;5.13;2.80;;;;;;;;;;5060169;28;20067;-67
2023/07/28 10:46:32;;;;;;;5.90;3.17;;;;;;;;;;5058277;28;20045;-65
2023/07/28 10:49:04;;;;;;;7.05;3.60;;;;;;;;;;5043763;28;20039;-65
2023/07/28 10:51:33;;;;;;;11.15;3.75;;;;;;;;;;5061672;28;20032;-65
2023/07/28 10:54:02;;;;;;;7.30;3.80;;;;;;;;;;5059470;28;20066;-65
2023/07/28 10:56:29;;;;;;;8.45;3.95;;;;;;;;;;5033584;28;20033;-68
2023/07/28 10:59:03;;;;;;;6.75;4.22;;;;;;;;;;5033836;28;20045;-65
2023/07/28 11:01:33;;;;;;;8.55;4.38;;;;;;;;;;5057874;28;20160;-64
2023/07/28 11:04:09;;;;;;;7.25;4.65;;;;;;;;;;5061468;28;20114;-66
2023/07/28 11:06:36;;;;;;;8.05;4.72;;;;;;;;;;5034481;28;20037;-66
2023/07/28 11:09:05;;;;;;;8.55;4.95;;;;;;;;;;5062492;28;20131;-67
2023/07/28 11:11:32;;;;;;;7.50;4.93;;;;;;;;;;5061258;28;20046;-65
2023/07/28 11:13:59;;;;;;;8.82;5.57;;;;;;;;;;5059925;28;20044;-65
2023/07/28 11:16:26;;;;;;;8.15;5.38;;;;;;;;;;5061250;28;20051;-65
2023/07/28 11:18:57;;;;;;;10.52;6.07;;;;;;;;;;5062527;28;20051;-66
2023/07/28 11:21:24;;;;;;;9.73;5.72;;;;;;;;;;5060271;28;20040;-66
2023/07/28 11:23:51;;;;;;;9.45;5.97;;;;;;;;;;5048608;28;20041;-64
2023/07/28 11:26:19;;;;;;;10.40;5.85;;;;;;;;;;5053254;28;20033;-65
2023/07/28 11:28:46;;;;;;;10.38;5.60;;;;;;;;;;5058126;28;20051;-64
2023/07/28 11:31:13;;;;;;;9.25;6.22;;;;;;;;;;5058513;28;20032;-65
2023/07/28 11:33:40;;;;;;;9.35;5.40;;;;;;;;;;5058917;28;20599;-66
2023/07/28 11:36:07;;;;;;;11.35;6.28;;;;;;;;;;5058801;28;20045;-66
2023/07/28 11:38:35;;;;;;;9.70;6.05;;;;;;;;;;5045306;28;20082;-64
2023/07/28 11:41:02;;;;;;;9.07;5.75;;;;;;;;;;5058795;28;20044;-66
2023/07/28 11:43:29;;;;;;;12.32;6.97;;;;;;;;;;5058583;28;20044;-65
2023/07/28 11:45:56;;;;;;;12.57;6.70;;;;;;;;;;5059882;28;20173;-66
2023/07/28 11:48:23;;;;;;;11.27;7.25;;;;;;;;;;5058300;28;20044;-63
2023/07/28 11:50:53;;;;;;;11.73;6.70;;;;;;;;;;5059447;28;20046;-64
2023/07/28 11:53:20;;;;;;;12.60;7.30;;;;;;;;;;5060762;28;20047;-65
2023/07/28 11:55:47;;;;;;;10.38;6.53;;;;;;;;;;5040922;28;20175;-61
2023/07/28 11:58:14;;;;;;;13.15;8.35;;;;;;;;;;5059640;28;20651;-59
2023/07/28 12:00:42;;;;;;;16.02;8.93;;;;;;;;;;5061749;28;20497;-62
2023/07/28 12:03:10;;;;;;;11.85;7.30;;;;;;;;;;5063976;28;20268;-63
2023/07/28 12:05:38;;;;;;;12.40;7.78;;;;;;;;;;5059350;28;20048;-60
2023/07/28 12:08:07;;;;;;;13.95;7.50;;;;;;;;;;5064221;28;20033;-64
2023/07/28 12:10:34;;;;;;;11.30;7.03;;;;;;;;;;5063481;28;20048;-64
2023/07/28 12:13:06;;;;;;;10.98;7.20;;;;;;;;;;5037029;28;20051;-63
2023/07/28 12:15:33;;;;;;;10.77;7.00;;;;;;;;;;5060834;28;20052;-63
2023/07/28 12:18:05;;;;;;;10.60;7.15;;;;;;;;;;5061941;28;20036;-64
2023/07/28 12:20:36;;;;;;;12.27;8.35;;;;;;;;;;5062265;28;20047;-66
2023/07/28 12:23:03;;;;;;;11.70;7.43;;;;;;;;;;5064373;28;20953;-66
2023/07/28 12:25:30;;;;;;;12.48;7.80;;;;;;;;;;5041919;28;20119;-64
2023/07/28 12:27:57;;;;;;;14.68;8.30;;;;;;;;;;5044488;28;20453;-60
2023/07/28 12:30:24;;;;;;;14.70;8.15;;;;;;;;;;5061137;28;20049;-67
2023/07/28 12:32:50;;;;;;;13.00;7.95;;;;;;;;;;5034482;28;20052;-66
2023/07/28 12:35:17;;;;;;;12.27;7.68;;;;;;;;;;5062667;28;20056;-66
2023/07/28 12:37:43;;;;;;;12.02;7.35;;;;;;;;;;5063519;28;20202;-65
2023/07/28 12:40:10;;;;;;;15.20;8.00;;;;;;;;;;5059819;28;20493;-65
2023/07/28 12:42:37;;;;;;;12.45;7.88;;;;;;;;;;5060944;28;20123;-65
2023/07/28 12:45:06;;;;;;;12.82;7.30;;;;;;;;;;5063550;28;20469;-64
2023/07/28 12:47:33;;;;;;;12.77;7.78;;;;;;;;;;5061220;28;20032;-62
2023/07/28 12:49:59;;;;;;;13.70;8.38;;;;;;;;;;5060144;28;20044;-64
2023/07/28 12:52:26;;;;;;;12.63;7.35;;;;;;;;;;5062199;28;20397;-66
2023/07/28 12:54:53;;;;;;;13.88;7.75;;;;;;;;;;5061284;28;20573;-63
2023/07/28 12:57:19;;;;;;;11.85;7.13;;;;;;;;;;5060957;28;20501;-64
2023/07/28 12:59:46;;;;;;;10.38;6.43;;;;;;;;;;5060347;28;20044;-64
2023/07/28 13:02:13;;;;;;;10.80;6.55;;;;;;;;;;5045043;28;20045;-60
2023/07/28 13:04:39;;;;;;;12.90;6.72;;;;;;;;;;5061308;28;20039;-65
2023/07/28 13:07:06;;;;;;;10.10;6.63;;;;;;;;;;5034910;28;20454;-61
2023/07/28 13:09:33;;;;;;;11.68;6.93;;;;;;;;;;5061010;28;20037;-61
2023/07/28 13:11:59;;;;;;;11.63;7.20;;;;;;;;;;5036189;28;20029;-62
2023/07/28 13:14:26;;;;;;;10.38;6.70;;;;;;;;;;5060049;28;20493;-61
2023/07/28 13:16:52;;;;;;;11.13;6.68;;;;;;;;;;5061636;28;20134;-61
2023/07/28 13:19:19;;;;;;;11.82;6.53;;;;;;;;;;5062040;28;20043;-65
2023/07/28 13:21:46;;;;;;;10.65;6.72;;;;;;;;;;5060216;28;20036;-66
2023/07/28 13:24:12;;;;;;;12.27;7.03;;;;;;;;;;5062807;28;20024;-64
2023/07/28 13:26:39;;;;;;;10.73;6.72;;;;;;;;;;5059897;28;20036;-65
2023/07/28 13:29:06;;;;;;;12.57;6.55;;;;;;;;;;5060184;28;20558;-65
2023/07/28 13:31:33;;;;;;;11.32;7.10;;;;;;;;;;5059413;28;20042;-66
2023/07/28 13:34:00;;;;;;;10.70;6.95;;;;;;;;;;5042023;28;20037;-66
2023/07/28 13:36:27;;;;;;;11.15;6.60;;;;;;;;;;5044084;28;20039;-66
2023/07/28 13:38:53;;;;;;;10.50;6.38;;;;;;;;;;5058851;28;20047;-67
2023/07/28 13:41:20;;;;;;;10.20;6.43;;;;;;;;;;5059240;28;20181;-65
2023/07/28 13:43:46;;;;;;;9.75;6.22;;;;;;;;;;5059441;28;20060;-65
2023/07/28 13:46:33;;;;;;;11.32;5.88;;;;;;;;;;5026866;28;20133;-66
2023/07/28 13:49:00;;;;;;;8.75;5.63;;;;;;;;;;5028845;28;20188;-65
2023/07/28 13:51:26;;;;;;;8.40;5.55;;;;;;;;;;5025356;28;20045;-65
2023/07/28 13:53:53;;;;;;;10.65;7.20;;;;;;;;;;5011288;28;20049;-65
2023/07/28 13:56:19;;;;;;;11.23;6.82;;;;;;;;;;5027411;28;20042;-65
2023/07/28 13:58:46;;;;;;;9.35;6.22;;;;;;;;;;5031365;28;20042;-65
2023/07/28 14:01:13;;;;;;;9.13;6.10;;;;;;;;;;5029336;28;21780;-65
2023/07/28 14:03:39;;;;;;;11.90;6.65;;;;;;;;;;5026737;28;20152;-65
2023/07/28 14:06:06;;;;;;;10.70;5.90;;;;;;;;;;5029325;28;20044;-65
2023/07/28 14:08:33;;;;;;;10.20;6.65;;;;;;;;;;5027721;28;20626;-66
2023/07/28 14:10:59;;;;;;;13.05;6.68;;;;;;;;;;5012715;28;20057;-65
2023/07/28 14:13:26;;;;;;;11.00;7.30;;;;;;;;;;5026798;28;20127;-65
2023/07/28 14:15:52;;;;;;;11.75;7.45;;;;;;;;;;5013288;28;20044;-67
2023/07/28 14:18:40;;;;;;;10.30;6.57;;;;;;;;;;5019068;28;20041;-67
2023/07/28 14:21:07;;;;;;;10.50;7.03;;;;;;;;;;5019771;28;20375;-65
2023/07/28 14:23:33;;;;;;;11.45;6.28;;;;;;;;;;5020998;28;20037;-64
2023/07/28 14:26:00;;;;;;;9.40;6.30;;;;;;;;;;5021734;28;20189;-65
2023/07/28 14:28:26;;;;;;;12.15;7.15;;;;;;;;;;5020019;28;20072;-65
2023/07/28 14:30:53;;;;;;;11.50;6.78;;;;;;;;;;5022065;28;20120;-65
2023/07/28 14:33:20;;;;;;;10.27;7.00;;;;;;;;;;5021470;28;20128;-66
2023/07/28 14:35:48;;;;;;;12.55;6.50;;;;;;;;;;5019131;28;20054;-65
2023/07/28 14:38:14;;;;;;;9.95;7.00;;;;;;;;;;5021357;28;20132;-66
2023/07/28 14:40:41;;;;;;;10.10;6.57;;;;;;;;;;5016723;28;20029;-65
2023/07/28 14:43:07;;;;;;;10.93;7.18;;;;;;;;;;5022807;28;20071;-65